createdAt,value
2023-03-01T00:01:25.837Z,10.68
2023-03-01T00:06:30.701Z,11.97
2023-03-01T00:11:35.973Z,10.15
2023-03-01T00:16:42.413Z,11.85
2023-03-01T00:21:46.952Z,9.57
2023-03-01T00:26:54.185Z,10.52
2023-03-01T00:31:58.315Z,10.75
2023-03-01T00:37:07.113Z,12.00
2023-03-01T00:42:10.962Z,9.93
2023-03-01T00:47:15.821Z,12.05
2023-03-01T00:52:19.638Z,12.27
2023-03-01T00:57:23.780Z,8.73
2023-03-01T01:02:29.409Z,13.90
2023-03-01T01:07:33.243Z,11.30
2023-03-01T01:12:37.384Z,12.90
2023-03-01T01:17:42.084Z,11.77
2023-03-01T01:22:46.307Z,10.52
2023-03-01T01:27:50.174Z,13.32
2023-03-01T01:32:54.154Z,13.48
2023-03-01T01:37:58.201Z,12.52
2023-03-01T01:43:02.055Z,13.48
2023-03-01T01:48:13.137Z,11.75
2023-03-01T01:53:21.437Z,13.02
2023-03-01T01:58:28.877Z,12.53
2023-03-01T02:03:39.078Z,11.57
2023-03-01T02:08:44.054Z,14.02
2023-03-01T02:13:50.919Z,14.82
2023-03-01T02:18:55.309Z,11.95
2023-03-01T02:24:24.622Z,13.60
2023-03-01T02:29:30.395Z,13.23
2023-03-01T02:34:35.659Z,14.75
2023-03-01T02:39:44.566Z,13.18
2023-03-01T02:44:48.600Z,11.38
2023-03-01T02:49:53.830Z,15.48
2023-03-01T02:55:16.906Z,10.90
2023-03-01T03:00:29.116Z,11.57
2023-03-01T03:05:33.874Z,10.65
2023-03-01T03:10:42.343Z,11.73
2023-03-01T03:15:46.427Z,8.68
2023-03-01T03:20:54.591Z,8.75
2023-03-01T03:25:58.845Z,6.70
2023-03-01T03:31:07.191Z,8.57
2023-03-01T03:36:14.629Z,8.40
2023-03-01T03:41:18.988Z,7.60
2023-03-01T03:46:22.844Z,7.05
2023-03-01T03:51:26.789Z,6.85
2023-03-01T03:56:30.964Z,8.23
2023-03-01T04:01:35.277Z,7.63
2023-03-01T04:06:39.181Z,8.80
2023-03-01T04:11:43.170Z,8.70
2023-03-01T04:17:07.293Z,11.45
2023-03-01T04:22:13.036Z,8.88
2023-03-01T04:27:17.186Z,7.88
2023-03-01T04:32:21.131Z,8.38
2023-03-01T04:37:25.960Z,6.80
2023-03-01T04:42:29.727Z,7.40
2023-03-01T04:47:33.586Z,7.75
2023-03-01T04:52:38.197Z,7.65
2023-03-01T04:57:42.138Z,10.88
2023-03-01T05:02:46.115Z,7.38
2023-03-01T05:07:49.883Z,9.27
2023-03-01T05:12:57.091Z,10.38
2023-03-01T05:18:01.902Z,8.40
2023-03-01T05:23:06.962Z,6.40
2023-03-01T05:28:14.571Z,8.20
2023-03-01T05:33:18.781Z,9.32
2023-03-01T05:38:24.241Z,8.27
2023-03-01T05:43:32.968Z,8.05
2023-03-01T05:48:38.223Z,7.88
2023-03-01T05:53:42.082Z,8.20
2023-03-01T05:58:46.066Z,9.32
2023-03-01T06:03:49.911Z,9.88
2023-03-01T06:08:54.766Z,8.50
2023-03-01T06:13:58.762Z,8.27
2023-03-01T06:19:02.553Z,10.00
2023-03-01T06:24:09.389Z,7.90
2023-03-01T06:29:13.266Z,7.00
2023-03-01T06:34:17.434Z,8.18
2023-03-01T06:39:21.164Z,8.07
2023-03-01T06:44:25.148Z,8.02
2023-03-01T06:49:29.198Z,7.95
2023-03-01T06:54:33.899Z,9.20
2023-03-01T06:59:37.798Z,8.27
2023-03-01T07:04:41.758Z,9.98
2023-03-01T07:09:47.185Z,8.20
2023-03-01T07:14:51.126Z,8.18
2023-03-01T07:19:55.020Z,7.60
2023-03-01T07:24:59.068Z,9.32
2023-03-01T07:30:03.453Z,6.30
2023-03-01T07:35:08.378Z,8.18
2023-03-01T07:40:13.230Z,8.20
2023-03-01T07:45:18.033Z,9.32
2023-03-01T07:50:22.618Z,8.80
2023-03-01T07:55:26.649Z,6.55
2023-03-01T08:00:30.447Z,8.93
2023-03-01T08:05:34.474Z,7.75
2023-03-01T08:10:38.787Z,9.50
2023-03-01T08:15:42.661Z,9.48
2023-03-01T08:20:46.934Z,8.65
2023-03-01T08:25:53.040Z,7.40
2023-03-01T08:30:57.112Z,7.50
2023-03-01T08:36:06.526Z,7.40
2023-03-01T08:41:10.294Z,9.02
2023-03-01T08:46:14.821Z,7.03
2023-03-01T08:51:23.306Z,8.48
2023-03-01T08:56:27.574Z,7.65
2023-03-01T09:01:31.367Z,9.35
2023-03-01T09:06:37.180Z,9.48
2023-03-01T09:11:41.001Z,7.40
2023-03-01T09:16:46.334Z,9.30
2023-03-01T09:21:58.669Z,8.73
2023-03-01T09:27:03.303Z,8.98
2023-03-01T09:32:08.479Z,8.80
2023-03-01T09:37:12.357Z,8.65
2023-03-01T09:42:18.745Z,8.50
2023-03-01T09:47:32.607Z,8.63
2023-03-01T09:52:50.498Z,7.95
2023-03-01T09:58:27.256Z,7.85
2023-03-01T10:03:40.593Z,7.55
2023-03-01T10:08:51.941Z,9.45
2023-03-01T10:14:09.129Z,8.55
2023-03-01T10:19:24.242Z,10.68
2023-03-01T10:24:31.963Z,8.93
2023-03-01T10:29:57.138Z,9.43
2023-03-01T10:35:00.962Z,8.35
2023-03-01T10:40:10.470Z,7.00
2023-03-01T10:45:39.788Z,8.48
2023-03-01T10:56:06.292Z,8.20
2023-03-01T11:01:36.724Z,9.70
2023-03-01T11:06:43.167Z,8.15
2023-03-01T11:11:48.204Z,8.45
2023-03-01T11:17:05.855Z,8.82
2023-03-01T11:22:15.992Z,9.73
2023-03-01T11:27:25.527Z,9.50
2023-03-01T11:32:44.956Z,11.45
2023-03-01T11:38:08.868Z,10.50
2023-03-01T11:43:44.993Z,12.30
2023-03-01T11:49:17.918Z,12.13
2023-03-01T11:54:28.797Z,11.40
2023-03-01T12:00:03.032Z,10.40
2023-03-01T12:05:23.832Z,10.27
2023-03-01T12:10:30.523Z,9.70
2023-03-01T12:15:43.289Z,21.95
2023-03-01T12:20:47.237Z,17.30
2023-03-01T12:26:18.032Z,12.60
2023-03-01T12:31:46.821Z,16.42
2023-03-01T12:37:18.357Z,9.90
2023-03-01T12:42:44.957Z,11.05
2023-03-01T12:48:19.864Z,13.25
2023-03-01T12:53:48.476Z,11.52
2023-03-01T12:59:20.074Z,11.23
2023-03-01T13:04:29.826Z,12.32
2023-03-01T13:09:46.641Z,13.82
2023-03-01T13:14:50.540Z,15.00
2023-03-01T13:20:02.511Z,17.20
2023-03-01T13:25:42.112Z,17.20
2023-03-01T13:30:47.622Z,18.83
2023-03-01T13:35:51.667Z,18.70
2023-03-01T13:40:55.688Z,18.45
2023-03-01T13:46:03.778Z,19.40
2023-03-01T13:51:12.910Z,22.42
2023-03-01T13:56:24.604Z,21.00
2023-03-01T14:01:37.466Z,23.40
2023-03-01T14:06:41.420Z,22.95
2023-03-01T14:11:54.990Z,24.65
2023-03-01T14:17:30.898Z,24.58
2023-03-01T14:22:38.214Z,21.23
2023-03-01T14:27:43.925Z,23.10
2023-03-01T14:32:59.960Z,21.35
2023-03-01T14:38:05.063Z,17.65
2023-03-01T14:43:25.436Z,21.85
2023-03-01T14:48:34.360Z,20.55
2023-03-01T14:53:50.277Z,20.00
2023-03-01T14:59:00.265Z,17.27
2023-03-01T15:04:04.781Z,19.60
2023-03-01T15:09:14.048Z,20.10
2023-03-01T15:14:44.101Z,17.48
2023-03-01T15:19:49.731Z,19.17
2023-03-01T15:24:55.041Z,19.77
2023-03-01T15:30:05.878Z,18.40
2023-03-01T15:35:38.774Z,18.08
2023-03-01T15:40:54.900Z,19.90
2023-03-01T15:46:00.321Z,18.10
2023-03-01T15:51:04.254Z,18.13
2023-03-01T15:56:12.124Z,18.50
2023-03-01T16:01:19.895Z,16.38
2023-03-01T16:06:23.838Z,21.08
2023-03-01T16:11:27.889Z,17.08
2023-03-01T16:16:32.200Z,18.02
2023-03-01T16:21:38.969Z,17.10
2023-03-01T16:26:44.025Z,16.88
2023-03-01T16:31:48.460Z,17.60
2023-03-01T16:36:52.609Z,17.67
2023-03-01T16:41:56.570Z,16.13
2023-03-01T16:47:00.401Z,16.08
2023-03-01T16:52:04.350Z,16.65
2023-03-01T16:57:08.387Z,18.42
2023-03-01T17:02:14.347Z,13.77
2023-03-01T17:07:18.358Z,19.70
2023-03-01T17:12:22.305Z,13.27
2023-03-01T17:17:26.352Z,16.02
2023-03-01T17:22:30.262Z,13.65
2023-03-01T17:27:36.309Z,13.57
2023-03-01T17:32:40.962Z,13.85
2023-03-01T17:37:47.224Z,12.43
2023-03-01T17:42:51.031Z,13.20
2023-03-01T17:47:55.906Z,12.38
2023-03-01T17:53:00.050Z,10.23
2023-03-01T17:58:04.882Z,11.13
2023-03-01T18:03:08.886Z,12.98
2023-03-01T18:08:12.821Z,12.23
2023-03-01T18:13:17.641Z,9.63
2023-03-01T18:18:21.373Z,13.07
2023-03-01T18:23:26.593Z,10.85
2023-03-01T18:28:32.178Z,10.65
2023-03-01T18:33:37.955Z,11.45
2023-03-01T18:38:41.988Z,11.75
2023-03-01T18:43:48.703Z,12.35
2023-03-01T18:48:54.602Z,13.15
2023-03-01T18:54:00.060Z,9.25
2023-03-01T18:59:05.432Z,8.57
2023-03-01T19:04:11.939Z,9.90
2023-03-01T19:09:16.259Z,9.13
2023-03-01T19:14:20.450Z,8.23
2023-03-01T19:19:24.579Z,10.32
2023-03-01T19:24:29.627Z,8.52
2023-03-01T19:29:33.460Z,8.07
2023-03-01T19:34:39.369Z,8.98
2023-03-01T19:39:44.130Z,10.48
2023-03-01T19:44:48.126Z,9.85
2023-03-01T19:49:51.891Z,10.82
2023-03-01T19:55:08.504Z,9.98
2023-03-01T20:00:14.019Z,9.52
2023-03-01T20:05:19.950Z,10.43
2023-03-01T20:10:28.951Z,11.25
2023-03-01T20:15:33.330Z,9.68
2023-03-01T20:20:37.555Z,9.43
2023-03-01T20:25:41.345Z,8.00
2023-03-01T20:30:46.626Z,8.02
2023-03-01T20:35:52.077Z,9.93
2023-03-01T20:41:08.557Z,9.27
2023-03-01T20:46:13.973Z,11.25
2023-03-01T20:51:18.160Z,9.45
2023-03-01T20:56:23.186Z,8.15
2023-03-01T21:01:40.799Z,9.65
2023-03-01T21:06:45.901Z,9.18
2023-03-01T21:11:52.673Z,8.02
2023-03-01T21:16:56.557Z,9.77
2023-03-01T21:22:00.618Z,8.80
2023-03-01T21:27:08.009Z,9.30
2023-03-01T21:32:13.299Z,9.70
2023-03-01T21:37:19.955Z,9.88
2023-03-01T21:42:24.072Z,9.32
2023-03-01T21:47:28.829Z,9.73
2023-03-01T21:52:32.638Z,7.32
2023-03-01T21:57:45.982Z,9.75
2023-03-01T22:02:50.538Z,11.93
2023-03-01T22:07:54.391Z,7.82
2023-03-01T22:13:02.789Z,6.35
2023-03-01T22:18:06.983Z,9.20
2023-03-01T22:23:11.036Z,8.85
2023-03-01T22:28:15.859Z,6.95
2023-03-01T22:33:22.019Z,12.77
2023-03-01T22:38:25.967Z,8.25
2023-03-01T22:43:31.542Z,6.65
2023-03-01T22:48:35.456Z,8.55
2023-03-01T22:53:40.152Z,8.63
2023-03-01T22:58:44.248Z,7.68
2023-03-01T23:03:49.826Z,8.73
2023-03-01T23:08:56.879Z,9.80
2023-03-01T23:14:00.971Z,10.80
2023-03-01T23:19:07.974Z,9.88
2023-03-01T23:24:12.012Z,10.20
2023-03-01T23:29:16.146Z,7.05
2023-03-01T23:34:20.931Z,8.43
2023-03-01T23:39:24.814Z,8.43
2023-03-01T23:44:30.001Z,10.70
2023-03-01T23:49:33.801Z,12.15
2023-03-01T23:54:37.700Z,10.45
2023-03-01T23:59:41.661Z,11.13
